createdAt,value
2017-11-04T00:00:14.232Z,7.73
2017-11-04T00:01:23.445Z,7.75
2017-11-04T00:02:32.324Z,7.77
2017-11-04T00:03:41.203Z,7.73
2017-11-04T00:04:50.096Z,7.73
2017-11-04T00:05:58.621Z,7.7
2017-11-04T00:07:07.507Z,7.68
2017-11-04T00:08:16.719Z,7.71
2017-11-04T00:09:25.593Z,7.77
2017-11-04T00:10:34.127Z,7.73
2017-11-04T00:11:43.051Z,7.64
2017-11-04T00:12:51.593Z,7.74
2017-11-04T00:14:00.501Z,7.75
2017-11-04T00:15:09.040Z,7.67
2017-11-04T00:16:17.578Z,7.74
2017-11-04T00:17:26.116Z,7.71
2017-11-04T00:18:34.657Z,7.64
2017-11-04T00:19:43.977Z,7.7
2017-11-04T00:20:53.225Z,7.75
2017-11-04T00:22:02.101Z,7.71
2017-11-04T00:23:10.637Z,7.68
2017-11-04T00:24:19.177Z,7.71
2017-11-04T00:25:28.057Z,7.68
2017-11-04T00:26:37.268Z,7.74
2017-11-04T00:27:45.802Z,7.73
2017-11-04T00:28:55.682Z,7.71
2017-11-04T00:30:04.895Z,7.7
2017-11-04T00:31:13.767Z,7.67
2017-11-04T00:32:22.979Z,7.74
2017-11-04T00:33:31.853Z,7.68
2017-11-04T00:34:41.066Z,7.63
2017-11-04T00:35:49.603Z,7.68
2017-11-04T00:36:58.530Z,7.71
2017-11-04T00:38:07.749Z,7.73
2017-11-04T00:39:16.624Z,7.59
2017-11-04T00:40:25.504Z,7.61
2017-11-04T00:41:34.384Z,7.63
2017-11-04T00:42:43.588Z,7.75
2017-11-04T00:43:52.129Z,7.73
2017-11-04T00:45:01.004Z,7.68
2017-11-04T00:46:09.545Z,7.71
2017-11-04T00:47:18.418Z,7.74
2017-11-04T00:48:27.312Z,7.75
2017-11-04T00:49:35.852Z,7.7
2017-11-04T00:50:45.068Z,7.71
2017-11-04T00:51:54.284Z,7.75
2017-11-04T00:54:41.449Z,7.86
2017-11-04T00:55:50.656Z,7.83
2017-11-04T00:56:59.532Z,7.77
2017-11-04T00:58:08.780Z,7.88
2017-11-04T00:59:17.660Z,7.88
2017-11-04T01:00:26.529Z,7.86
2017-11-04T01:01:35.073Z,7.88
2017-11-04T01:02:43.950Z,7.82
2017-11-04T01:03:52.836Z,7.85
2017-11-04T01:05:02.049Z,7.85
2017-11-04T01:06:11.257Z,7.85
2017-11-04T01:07:19.793Z,7.88
2017-11-04T01:08:28.334Z,7.95
2017-11-04T01:09:36.870Z,7.8
2017-11-04T01:10:46.079Z,7.83
2017-11-04T01:11:54.953Z,7.88
2017-11-04T01:13:03.836Z,7.85
2017-11-04T01:14:12.715Z,7.88
2017-11-04T01:15:21.599Z,7.89
2017-11-04T01:16:30.140Z,7.99
2017-11-04T01:17:39.013Z,7.95
2017-11-04T01:18:47.599Z,7.95
2017-11-04T01:19:56.138Z,7.96
2017-11-04T01:21:05.013Z,7.96
2017-11-04T01:22:13.555Z,7.93
2017-11-04T01:23:22.098Z,7.96
2017-11-04T01:24:31.308Z,7.98
2017-11-04T01:25:39.850Z,7.99
2017-11-04T01:26:48.720Z,8.04
2017-11-04T01:27:57.258Z,8.04
2017-11-04T01:29:06.143Z,7.95
2017-11-04T01:30:15.018Z,7.93
2017-11-04T01:31:24.249Z,7.96
2017-11-04T01:32:33.460Z,7.95
2017-11-04T01:33:42.675Z,7.91
2017-11-04T01:34:51.554Z,7.91
2017-11-04T01:36:00.774Z,7.95
2017-11-04T01:37:09.983Z,7.93
2017-11-04T01:38:18.858Z,7.92
2017-11-04T01:39:27.395Z,7.89
2017-11-04T01:40:36.267Z,7.91
2017-11-04T01:41:45.140Z,7.88
2017-11-04T01:42:54.017Z,7.89
2017-11-04T01:44:02.553Z,7.98
2017-11-04T01:45:12.105Z,7.93
2017-11-04T01:46:20.977Z,7.92
2017-11-04T01:47:30.191Z,7.95
2017-11-04T01:48:39.068Z,7.92
2017-11-04T01:49:48.611Z,7.95
2017-11-04T01:50:57.487Z,7.89
2017-11-04T01:52:06.025Z,7.88
2017-11-04T01:53:14.898Z,7.96
2017-11-04T01:54:23.773Z,7.88
2017-11-04T01:55:32.699Z,7.82
2017-11-04T01:56:41.571Z,7.88
2017-11-04T01:57:50.262Z,7.8
2017-11-04T01:58:59.472Z,7.89
2017-11-04T02:00:09.546Z,7.83
2017-11-04T02:01:18.761Z,7.96
2017-11-04T02:02:27.302Z,7.83
2017-11-04T02:03:36.511Z,7.88
2017-11-04T02:04:45.385Z,7.88
2017-11-04T02:05:53.928Z,7.83
2017-11-04T02:07:02.795Z,7.96
2017-11-04T02:08:12.008Z,7.88
2017-11-04T02:09:20.548Z,7.96
2017-11-04T02:10:29.418Z,7.86
2017-11-04T02:11:38.638Z,7.95
2017-11-04T02:12:47.513Z,7.83
2017-11-04T02:13:57.057Z,7.86
2017-11-04T02:15:06.269Z,7.83
2017-11-04T02:16:15.145Z,7.93
2017-11-04T02:17:23.686Z,7.88
2017-11-04T02:18:32.556Z,7.88
2017-11-04T02:19:41.112Z,7.78
2017-11-04T02:20:50.320Z,7.86
2017-11-04T02:21:59.541Z,7.91
2017-11-04T02:23:08.418Z,7.92
2017-11-04T02:24:17.637Z,7.83
2017-11-04T02:25:26.848Z,7.91
2017-11-04T02:26:35.385Z,7.82
2017-11-04T02:27:44.263Z,8.01
2017-11-04T02:28:53.136Z,7.88
2017-11-04T02:30:02.354Z,7.95
2017-11-04T02:31:11.910Z,7.91
2017-11-04T02:32:20.448Z,7.92
2017-11-04T02:33:29.659Z,7.95
2017-11-04T02:34:38.197Z,7.83
2017-11-04T02:35:47.080Z,7.96
2017-11-04T02:36:55.621Z,7.92
2017-11-04T02:38:04.159Z,7.91
2017-11-04T02:39:12.699Z,7.95
2017-11-04T02:40:21.571Z,7.86
2017-11-04T02:41:30.110Z,7.83
2017-11-04T02:42:39.659Z,7.89
2017-11-04T02:43:48.535Z,7.8
2017-11-04T02:44:57.074Z,7.88
2017-11-04T02:46:05.947Z,7.83
2017-11-04T02:47:15.501Z,7.98
2017-11-04T02:48:24.380Z,7.85
2017-11-04T02:49:33.594Z,7.82
2017-11-04T02:50:42.136Z,7.86
2017-11-04T02:51:51.010Z,7.83
2017-11-04T02:53:00.225Z,7.88
2017-11-04T02:54:09.434Z,7.88
2017-11-04T02:55:18.305Z,7.82
2017-11-04T02:56:27.176Z,7.91
2017-11-04T02:57:35.720Z,7.88
2017-11-04T02:58:44.596Z,7.77
2017-11-04T02:59:53.801Z,7.8
2017-11-04T03:01:02.677Z,7.83
2017-11-04T03:02:11.887Z,7.85
2017-11-04T03:03:20.426Z,7.82
2017-11-04T03:04:29.300Z,7.88
2017-11-04T03:05:37.836Z,7.78
2017-11-04T03:06:46.709Z,7.88
2017-11-04T03:07:55.248Z,7.82
2017-11-04T03:09:04.124Z,7.88
2017-11-04T03:10:12.664Z,7.88
2017-11-04T03:11:21.210Z,7.88
2017-11-04T03:12:30.083Z,7.83
2017-11-04T03:13:38.957Z,7.83
2017-11-04T03:14:47.495Z,7.88
2017-11-04T03:15:56.370Z,7.98
2017-11-04T03:17:05.247Z,7.89
2017-11-04T03:18:14.123Z,7.83
2017-11-04T03:19:22.995Z,7.82
2017-11-04T03:20:32.210Z,7.93
2017-11-04T03:21:40.747Z,7.91
2017-11-04T03:22:49.620Z,7.92
2017-11-04T03:23:58.160Z,7.91
2017-11-04T03:25:06.701Z,7.83
2017-11-04T03:26:15.911Z,7.92
2017-11-04T03:27:24.449Z,7.91
2017-11-04T03:28:33.327Z,7.93
2017-11-04T03:29:42.202Z,7.96
2017-11-04T03:30:51.422Z,7.95
2017-11-04T03:31:59.962Z,7.93
2017-11-04T03:33:09.171Z,8.03
2017-11-04T03:34:18.381Z,8.04
2017-11-04T03:35:26.920Z,8.01
2017-11-04T03:36:35.824Z,8.01
2017-11-04T03:37:45.041Z,8.04
2017-11-04T03:38:53.582Z,8.06
2017-11-04T03:40:02.118Z,8.13
2017-11-04T03:41:10.655Z,8.04
2017-11-04T03:42:19.192Z,8.04
2017-11-04T03:43:27.729Z,8.04
2017-11-04T03:44:36.612Z,8.07
2017-11-04T03:45:46.161Z,8.04
2017-11-04T03:46:55.028Z,8.07
2017-11-04T03:48:04.236Z,8.1
2017-11-04T03:49:13.117Z,8.07
2017-11-04T03:50:21.652Z,8.07
2017-11-04T03:51:30.193Z,8.13
2017-11-04T03:52:39.067Z,8.07
2017-11-04T03:53:47.938Z,8.11
2017-11-04T03:54:56.479Z,8.17
2017-11-04T03:56:05.024Z,8.24
2017-11-04T03:57:14.240Z,8.16
2017-11-04T03:58:23.457Z,8.13
2017-11-04T03:59:31.992Z,8.24
2017-11-04T04:00:41.545Z,8.14
2017-11-04T04:01:50.086Z,8.21
2017-11-04T04:02:58.623Z,8.11
2017-11-04T04:04:07.160Z,8.17
2017-11-04T04:05:16.389Z,8.09
2017-11-04T04:06:25.248Z,8.1
2017-11-04T04:07:34.464Z,8.19
2017-11-04T04:08:43.668Z,8.11
2017-11-04T04:09:52.546Z,8.14
2017-11-04T04:11:01.418Z,8.11
2017-11-04T04:12:09.957Z,8.14
2017-11-04T04:13:18.835Z,8.24
2017-11-04T04:14:27.708Z,8.11
2017-11-04T04:15:36.967Z,8.16
2017-11-04T04:16:45.844Z,8.21
2017-11-04T04:17:54.426Z,8.11
2017-11-04T04:19:02.964Z,8.16
2017-11-04T04:20:11.840Z,8.1
2017-11-04T04:21:20.386Z,8.19
2017-11-04T04:22:29.253Z,8.1
2017-11-04T04:23:37.789Z,8.17
2017-11-04T04:24:46.660Z,8.19
2017-11-04T04:25:55.204Z,8.16
2017-11-04T04:27:04.750Z,8.22
2017-11-04T04:28:13.288Z,8.25
2017-11-04T04:29:22.505Z,8.21
2017-11-04T04:30:31.380Z,8.14
2017-11-04T04:31:40.594Z,8.13
2017-11-04T04:32:49.471Z,8.14
2017-11-04T04:33:58.347Z,8.17
2017-11-04T04:35:06.887Z,8.19
2017-11-04T04:36:16.100Z,8.13
2017-11-04T04:37:24.988Z,8.25
2017-11-04T04:38:33.866Z,8.26
2017-11-04T04:39:42.404Z,8.21
2017-11-04T04:40:51.327Z,8.16
2017-11-04T04:42:00.543Z,8.25
2017-11-04T04:43:09.082Z,8.25
2017-11-04T04:44:17.957Z,8.19
2017-11-04T04:45:26.496Z,8.24
2017-11-04T04:46:35.372Z,8.24
2017-11-04T04:47:44.591Z,8.25
2017-11-04T04:48:53.464Z,8.25
2017-11-04T04:50:02.349Z,8.17
2017-11-04T04:51:11.563Z,8.26
2017-11-04T04:52:20.775Z,8.22
2017-11-04T04:53:29.993Z,8.22
2017-11-04T04:54:38.869Z,8.17
2017-11-04T04:55:47.407Z,8.24
2017-11-04T04:56:56.277Z,8.21
2017-11-04T04:58:04.818Z,8.28
2017-11-04T04:59:13.691Z,8.22
2017-11-04T05:00:22.902Z,8.31
2017-11-04T05:01:31.439Z,8.29
2017-11-04T05:02:39.976Z,8.28
2017-11-04T05:03:49.530Z,8.29
2017-11-04T05:04:58.430Z,8.28
2017-11-04T05:06:06.945Z,8.31
2017-11-04T05:07:15.818Z,8.31
2017-11-04T05:08:25.036Z,8.29
2017-11-04T05:09:33.928Z,8.21
2017-11-04T05:10:42.446Z,8.35
2017-11-04T05:11:51.320Z,8.24
2017-11-04T05:12:59.857Z,8.36
2017-11-04T05:14:08.396Z,8.28
2017-11-04T05:15:17.276Z,8.31
2017-11-04T05:16:26.486Z,8.22
2017-11-04T05:17:35.026Z,8.26
2017-11-04T05:18:43.568Z,8.28
2017-11-04T05:19:52.442Z,8.26
2017-11-04T05:21:01.313Z,8.35
2017-11-04T05:22:10.524Z,8.29
2017-11-04T05:23:20.080Z,8.31
2017-11-04T05:24:29.035Z,8.36
2017-11-04T05:25:38.127Z,8.4
2017-11-04T05:26:47.019Z,8.34
2017-11-04T05:27:55.620Z,8.39
2017-11-04T05:29:04.157Z,8.35
2017-11-04T05:30:13.034Z,8.42
2017-11-04T05:31:21.575Z,8.36
2017-11-04T05:32:30.528Z,8.34
2017-11-04T05:33:39.258Z,8.32
2017-11-04T05:34:48.950Z,8.36
2017-11-04T05:35:57.585Z,8.35
2017-11-04T05:37:06.459Z,8.35
2017-11-04T05:38:15.073Z,8.34
2017-11-04T05:39:23.999Z,8.36
2017-11-04T05:40:33.222Z,8.35
2017-11-04T05:41:42.101Z,8.35
2017-11-04T05:42:50.980Z,8.36
2017-11-04T05:43:59.857Z,8.36
2017-11-04T05:45:09.071Z,8.31
2017-11-04T05:46:17.944Z,8.35
2017-11-04T05:47:26.481Z,8.43
2017-11-04T05:48:35.019Z,8.42
2017-11-04T05:49:43.556Z,8.44
2017-11-04T05:50:52.432Z,8.34
2017-11-04T05:52:01.305Z,8.39
2017-11-04T05:53:10.178Z,8.4
2017-11-04T05:54:18.716Z,8.36
2017-11-04T05:55:27.611Z,8.35
2017-11-04T05:56:36.568Z,8.43
2017-11-04T05:57:46.133Z,8.46
2017-11-04T05:58:55.341Z,8.46
2017-11-04T06:00:04.557Z,8.49
2017-11-04T06:01:13.774Z,8.39
2017-11-04T06:02:22.654Z,8.5
2017-11-04T06:03:31.531Z,8.53
2017-11-04T06:04:40.738Z,8.4
2017-11-04T06:05:49.276Z,8.52
2017-11-04T06:06:57.814Z,8.54
2017-11-04T06:08:06.354Z,8.5
2017-11-04T06:09:14.893Z,8.57
2017-11-04T06:10:23.431Z,8.52
2017-11-04T06:11:32.637Z,8.54
2017-11-04T06:12:41.514Z,8.53
2017-11-04T06:13:50.398Z,8.57
2017-11-04T06:14:59.269Z,8.61
2017-11-04T06:16:08.145Z,8.58
2017-11-04T06:17:17.022Z,8.61
2017-11-04T06:18:25.901Z,8.65
2017-11-04T06:19:35.119Z,8.61
2017-11-04T06:20:43.996Z,8.65
2017-11-04T06:21:52.532Z,8.67
2017-11-04T06:23:01.420Z,8.67
2017-11-04T06:24:09.952Z,8.67
2017-11-04T06:25:18.825Z,8.64
2017-11-04T06:26:28.035Z,8.71
2017-11-04T06:27:36.909Z,8.62
2017-11-04T06:28:45.784Z,8.68
2017-11-04T06:29:54.660Z,8.65
2017-11-04T06:31:03.200Z,8.72
2017-11-04T06:32:11.754Z,8.69
2017-11-04T06:33:20.641Z,8.76
2017-11-04T06:34:29.515Z,8.76
2017-11-04T06:35:38.398Z,8.71
2017-11-04T06:36:47.618Z,8.76
2017-11-04T06:37:56.153Z,8.72
2017-11-04T06:39:05.028Z,8.85
2017-11-04T06:40:13.565Z,8.82
2017-11-04T06:41:22.831Z,8.77
2017-11-04T06:42:31.367Z,8.72
2017-11-04T06:43:40.242Z,8.8
2017-11-04T06:44:48.781Z,8.85
2017-11-04T06:45:57.656Z,8.82
2017-11-04T06:47:06.863Z,8.79
2017-11-04T06:48:15.401Z,8.89
2017-11-04T06:49:24.278Z,8.9
2017-11-04T06:50:33.156Z,8.87
2017-11-04T06:51:42.035Z,8.85
2017-11-04T06:52:51.245Z,8.79
2017-11-04T06:53:59.783Z,8.77
2017-11-04T06:55:08.996Z,8.98
2017-11-04T06:56:17.872Z,8.94
2017-11-04T06:57:26.741Z,8.92
2017-11-04T06:58:35.615Z,8.92
2017-11-04T06:59:44.823Z,8.92
2017-11-04T07:00:53.699Z,8.95
2017-11-04T07:02:02.918Z,8.92
2017-11-04T07:03:11.455Z,8.87
2017-11-04T07:04:19.996Z,8.97
2017-11-04T07:05:28.872Z,8.97
2017-11-04T07:06:37.748Z,8.9
2017-11-04T07:07:47.293Z,8.94
2017-11-04T07:08:55.835Z,9.05
2017-11-04T07:10:04.375Z,8.94
2017-11-04T07:11:13.247Z,9.05
2017-11-04T07:12:22.129Z,9.05
2017-11-04T07:13:30.820Z,9.09
2017-11-04T07:14:39.379Z,9.09
2017-11-04T07:15:47.899Z,9.04
2017-11-04T07:16:57.113Z,9.08
2017-11-04T07:18:05.988Z,9.09
2017-11-04T07:19:14.525Z,9.08
2017-11-04T07:20:23.405Z,9.05
2017-11-04T07:21:32.274Z,9.09
2017-11-04T07:22:40.812Z,9.05
2017-11-04T07:23:49.685Z,9.11
2017-11-04T07:24:58.228Z,9
2017-11-04T07:26:07.437Z,9.05
2017-11-04T07:27:16.661Z,9.16
2017-11-04T07:28:25.866Z,9.05
2017-11-04T07:29:34.402Z,9.09
2017-11-04T07:30:43.336Z,9
2017-11-04T07:31:52.583Z,9.17
2017-11-04T07:33:01.670Z,9.11
2017-11-04T07:34:10.212Z,9.12
2017-11-04T07:35:18.750Z,9.05
2017-11-04T07:36:27.287Z,9.14
2017-11-04T07:37:35.825Z,9.14
2017-11-04T07:38:44.364Z,9.23
2017-11-04T07:39:52.905Z,9.2
2017-11-04T07:41:01.777Z,9.24
2017-11-04T07:42:10.657Z,9.26
2017-11-04T07:43:19.197Z,9.27
2017-11-04T07:44:28.072Z,9.27
2017-11-04T07:45:36.945Z,9.34
2017-11-04T07:46:45.819Z,9.41
2017-11-04T07:47:54.695Z,9.35
2017-11-04T07:49:03.571Z,9.42
2017-11-04T07:50:12.110Z,9.45
2017-11-04T07:51:20.650Z,9.44
2017-11-04T07:52:29.190Z,9.48
2017-11-04T07:53:37.729Z,9.48
2017-11-04T07:54:46.602Z,9.45
2017-11-04T07:55:55.478Z,9.48
2017-11-04T07:57:04.688Z,9.44
2017-11-04T07:58:13.226Z,9.32
2017-11-04T07:59:22.449Z,9.42
2017-11-04T08:00:30.994Z,9.41
2017-11-04T08:01:39.534Z,9.35
2017-11-04T08:02:48.073Z,9.39
2017-11-04T08:03:56.954Z,9.39
2017-11-04T08:05:05.544Z,9.39
2017-11-04T08:06:14.418Z,9.27
2017-11-04T08:07:23.292Z,9.3
2017-11-04T08:08:31.834Z,9.34
2017-11-04T08:09:40.717Z,9.32
2017-11-04T08:10:49.308Z,9.29
2017-11-04T08:11:58.518Z,9.44
2017-11-04T08:13:07.398Z,9.38
2017-11-04T08:14:15.940Z,9.34
2017-11-04T08:15:24.478Z,9.37
2017-11-04T08:16:33.359Z,9.34
2017-11-04T08:17:41.916Z,9.35
2017-11-04T08:18:50.795Z,9.32
2017-11-04T08:19:59.674Z,9.35
2017-11-04T08:21:08.559Z,9.37
2017-11-04T08:22:17.089Z,9.44
2017-11-04T08:23:25.962Z,9.39
2017-11-04T08:24:34.834Z,9.47
2017-11-04T08:25:43.711Z,9.5
2017-11-04T08:26:52.921Z,9.52
2017-11-04T08:28:01.846Z,9.55
2017-11-04T08:29:10.384Z,9.59
2017-11-04T08:30:19.601Z,9.55
2017-11-04T08:31:28.476Z,9.62
2017-11-04T08:32:37.016Z,9.72
2017-11-04T08:33:45.553Z,9.77
2017-11-04T08:34:54.092Z,9.8
2017-11-04T08:36:02.628Z,9.81
2017-11-04T08:37:11.168Z,9.9
2017-11-04T08:38:19.709Z,9.93
2017-11-04T08:39:28.582Z,9.9
2017-11-04T08:40:37.795Z,10
2017-11-04T08:41:47.010Z,9.9
2017-11-04T08:42:56.224Z,9.89
2017-11-04T08:44:05.433Z,9.93
2017-11-04T08:45:13.977Z,9.96
2017-11-04T08:46:22.854Z,10.08
2017-11-04T08:47:31.738Z,10.03
2017-11-04T08:48:40.963Z,10.03
2017-11-04T08:49:49.506Z,10.1
2017-11-04T08:50:58.383Z,10.08
2017-11-04T08:52:07.600Z,10.17
2017-11-04T08:53:16.472Z,10.13
2017-11-04T08:54:25.347Z,10.17
2017-11-04T08:55:34.250Z,10.23
2017-11-04T08:56:43.849Z,10.23
2017-11-04T08:57:53.069Z,10.28
2017-11-04T08:59:01.616Z,10.23
2017-11-04T09:00:10.491Z,10.26
2017-11-04T09:01:19.914Z,10.25
2017-11-04T09:02:29.124Z,10.33
2017-11-04T09:03:37.998Z,10.35
2017-11-04T09:04:46.543Z,10.33
2017-11-04T09:05:55.425Z,10.38
2017-11-04T09:07:03.967Z,10.39
2017-11-04T09:08:12.892Z,10.49
2017-11-04T09:09:22.105Z,10.47
2017-11-04T09:10:30.981Z,10.46
2017-11-04T09:11:39.855Z,10.46
2017-11-04T09:12:48.729Z,10.46
2017-11-04T09:13:57.470Z,10.52
2017-11-04T09:15:06.681Z,10.52
2017-11-04T09:16:15.900Z,10.58
2017-11-04T09:17:24.771Z,10.61
2017-11-04T09:18:33.992Z,10.63
2017-11-04T09:19:42.532Z,10.63
2017-11-04T09:20:51.745Z,10.72
2017-11-04T09:22:00.624Z,10.67
2017-11-04T09:23:10.179Z,10.75
2017-11-04T09:24:19.401Z,10.77
2017-11-04T09:25:28.274Z,10.79
2017-11-04T09:26:37.152Z,10.84
2017-11-04T09:27:45.694Z,10.91
2017-11-04T09:28:54.908Z,10.87
2017-11-04T09:30:03.451Z,10.97
2017-11-04T09:31:13.010Z,11.05
2017-11-04T09:32:22.278Z,10.95
2017-11-04T09:33:30.820Z,10.92
2017-11-04T09:34:40.036Z,11.03
2017-11-04T09:35:48.912Z,11.09
2017-11-04T09:36:57.457Z,11.16
2017-11-04T09:38:06.335Z,11.24
2017-11-04T09:39:15.564Z,11.21
2017-11-04T09:40:24.106Z,11.3
2017-11-04T09:41:32.647Z,11.35
2017-11-04T09:42:41.866Z,11.35
2017-11-04T09:43:50.792Z,11.31
2017-11-04T09:44:59.363Z,11.41
2017-11-04T09:46:07.877Z,11.34
2017-11-04T09:47:16.421Z,11.49
2017-11-04T09:48:25.293Z,11.43
2017-11-04T09:49:33.869Z,11.46
2017-11-04T09:50:42.749Z,11.56
2017-11-04T09:51:51.640Z,11.49
2017-11-04T09:53:00.508Z,11.6
2017-11-04T09:54:09.059Z,11.56
2017-11-04T09:55:17.609Z,11.63
2017-11-04T09:56:26.137Z,11.67
2017-11-04T09:57:35.014Z,11.67
2017-11-04T09:58:43.556Z,11.85
2017-11-04T09:59:53.107Z,11.81
2017-11-04T10:01:01.650Z,11.84
2017-11-04T10:02:10.197Z,11.86
2017-11-04T10:03:19.422Z,11.94
2017-11-04T10:04:27.962Z,11.84
2017-11-04T10:05:36.840Z,11.78
2017-11-04T10:06:45.720Z,11.97
2017-11-04T10:07:54.607Z,11.79
2017-11-04T10:09:03.818Z,11.84
2017-11-04T10:10:12.358Z,11.88
2017-11-04T10:11:20.903Z,11.95
2017-11-04T10:12:29.447Z,12.04
2017-11-04T10:13:37.989Z,11.98
2017-11-04T10:14:46.863Z,12.19
2017-11-04T10:15:55.416Z,12.2
2017-11-04T10:17:03.961Z,12.2
2017-11-04T10:18:12.835Z,12.26
2017-11-04T10:19:21.379Z,12.34
2017-11-04T10:20:30.278Z,12.25
2017-11-04T10:21:39.153Z,12.31
2017-11-04T10:22:47.701Z,12.36
2017-11-04T10:23:56.582Z,12.44
2017-11-04T10:25:05.462Z,12.44
2017-11-04T10:26:14.342Z,12.45
2017-11-04T10:27:23.556Z,12.47
2017-11-04T10:28:32.776Z,12.43
2017-11-04T10:29:41.664Z,12.52
2017-11-04T10:30:50.200Z,12.52
2017-11-04T10:31:59.415Z,12.52
2017-11-04T10:33:07.955Z,12.48
2017-11-04T10:34:16.833Z,12.58
2017-11-04T10:35:25.380Z,12.48
2017-11-04T10:36:33.927Z,12.52
2017-11-04T10:37:43.138Z,12.59
2017-11-04T10:38:52.350Z,12.63
2017-11-04T10:40:01.223Z,12.53
2017-11-04T10:41:10.432Z,12.62
2017-11-04T10:42:19.648Z,12.63
2017-11-04T10:43:28.529Z,12.61
2017-11-04T10:44:37.408Z,12.73
2017-11-04T10:45:46.622Z,12.7
2017-11-04T10:46:55.166Z,12.69
2017-11-04T10:48:04.384Z,12.65
2017-11-04T10:49:13.271Z,12.76
2017-11-04T10:50:22.162Z,12.74
2017-11-04T10:51:31.040Z,12.77
2017-11-04T10:52:39.914Z,12.84
2017-11-04T10:53:48.790Z,12.83
2017-11-04T10:54:58.006Z,12.88
2017-11-04T10:56:06.601Z,12.83
2017-11-04T10:57:15.140Z,12.94
2017-11-04T10:58:24.690Z,12.92
2017-11-04T10:59:33.231Z,12.96
2017-11-04T11:00:41.773Z,13.01
2017-11-04T11:01:50.317Z,12.95
2017-11-04T11:02:59.196Z,12.99
2017-11-04T11:04:08.075Z,12.95
2017-11-04T11:05:16.960Z,12.98
2017-11-04T11:06:25.845Z,13.02
2017-11-04T11:07:34.386Z,13.1
2017-11-04T11:08:43.269Z,13.11
2017-11-04T11:09:52.495Z,13.16
2017-11-04T11:11:01.036Z,13.17
2017-11-04T11:12:10.254Z,13.19
2017-11-04T11:13:19.136Z,13.17
2017-11-04T11:14:28.016Z,13.09
2017-11-04T11:15:36.557Z,13.25
2017-11-04T11:16:45.103Z,13.14
2017-11-04T11:17:54.030Z,13.25
2017-11-04T11:19:02.913Z,13.27
2017-11-04T11:20:12.462Z,13.28
2017-11-04T11:21:21.340Z,13.16
2017-11-04T11:22:30.220Z,13.16
2017-11-04T11:23:39.105Z,13.28
2017-11-04T11:24:47.651Z,13.28
2017-11-04T11:25:56.191Z,13.28
2017-11-04T11:27:05.407Z,13.29
2017-11-04T11:28:13.953Z,13.27
2017-11-04T11:29:23.171Z,13.39
2017-11-04T11:30:32.778Z,13.4
2017-11-04T11:31:41.654Z,13.37
2017-11-04T11:32:50.535Z,13.47
2017-11-04T11:33:59.411Z,13.47
2017-11-04T11:35:08.295Z,13.44
2017-11-04T11:36:17.521Z,13.58
2017-11-04T11:37:26.403Z,13.55
2017-11-04T11:38:34.947Z,13.54
2017-11-04T11:39:43.826Z,13.63
2017-11-04T11:40:52.707Z,13.6
2017-11-04T11:42:01.928Z,13.6
2017-11-04T11:43:10.805Z,13.58
2017-11-04T11:44:19.733Z,13.66
2017-11-04T11:45:28.276Z,13.65
2017-11-04T11:46:36.821Z,13.75
2017-11-04T11:47:45.695Z,13.69
2017-11-04T11:48:54.582Z,13.7
2017-11-04T11:50:03.530Z,13.75
2017-11-04T11:51:12.485Z,13.76
2017-11-04T11:52:21.746Z,13.87
2017-11-04T11:53:30.961Z,13.94
2017-11-04T11:54:40.177Z,13.9
2017-11-04T11:55:48.727Z,13.95
2017-11-04T11:56:57.605Z,13.93
2017-11-04T11:58:06.146Z,14.03
2017-11-04T11:59:14.690Z,13.95
2017-11-04T12:00:23.567Z,14.03
2017-11-04T12:01:32.112Z,14.03
2017-11-04T12:02:40.994Z,14.01
2017-11-04T12:03:50.293Z,14.06
2017-11-04T12:05:00.419Z,14.11
2017-11-04T12:06:09.247Z,14.16
2017-11-04T12:07:18.644Z,14.12
2017-11-04T12:08:27.954Z,14.01
2017-11-04T12:09:37.489Z,14.13
2017-11-04T12:10:47.655Z,14.16
2017-11-04T12:11:57.082Z,14.27
2017-11-04T12:13:06.502Z,14.19
2017-11-04T12:14:15.145Z,14.28
2017-11-04T12:15:24.027Z,14.31
2017-11-04T12:16:32.568Z,14.34
2017-11-04T12:17:41.453Z,14.31
2017-11-04T12:18:51.023Z,14.33
2017-11-04T12:20:00.634Z,14.38
2017-11-04T12:21:09.513Z,14.39
2017-11-04T12:22:18.074Z,14.44
2017-11-04T12:23:26.955Z,14.46
2017-11-04T12:24:35.495Z,14.56
2017-11-04T12:25:44.376Z,14.51
2017-11-04T12:26:52.920Z,14.59
2017-11-04T12:28:01.808Z,14.59
2017-11-04T12:29:10.352Z,14.61
2017-11-04T12:30:18.898Z,14.71
2017-11-04T12:31:27.777Z,14.66
2017-11-04T12:32:36.316Z,14.7
2017-11-04T12:33:45.205Z,14.63
2017-11-04T12:34:54.443Z,14.7
2017-11-04T12:36:03.326Z,14.7
2017-11-04T12:37:11.870Z,14.75
2017-11-04T12:38:20.748Z,14.79
2017-11-04T12:39:29.627Z,14.7
2017-11-04T12:40:38.168Z,14.7
2017-11-04T12:41:47.058Z,14.64
2017-11-04T12:42:56.270Z,14.66
2017-11-04T12:44:05.484Z,14.69
2017-11-04T12:45:14.363Z,14.74
2017-11-04T12:46:23.585Z,14.71
2017-11-04T12:47:32.134Z,14.67
2017-11-04T12:48:41.685Z,14.6
2017-11-04T12:49:50.564Z,14.66
2017-11-04T12:50:59.443Z,14.7
2017-11-04T12:52:08.660Z,14.74
2017-11-04T12:53:17.888Z,14.67
2017-11-04T12:54:27.104Z,14.69
2017-11-04T12:55:35.986Z,14.66
2017-11-04T12:56:44.866Z,14.64
2017-11-04T12:57:53.748Z,14.7
2017-11-04T12:59:02.959Z,14.67
2017-11-04T13:00:11.903Z,14.69
2017-11-04T13:01:20.438Z,14.63
2017-11-04T13:02:29.318Z,14.64
2017-11-04T13:03:38.544Z,14.66
2017-11-04T13:04:47.423Z,14.66
2017-11-04T13:05:55.968Z,14.64
2017-11-04T13:07:04.852Z,14.74
2017-11-04T13:08:13.441Z,14.67
2017-11-04T13:09:22.705Z,14.7
2017-11-04T13:10:31.282Z,14.69
2017-11-04T13:11:40.213Z,14.7
2017-11-04T13:12:48.793Z,14.77
2017-11-04T13:13:58.030Z,14.77
2017-11-04T13:15:06.630Z,14.79
2017-11-04T13:16:15.191Z,14.8
2017-11-04T13:17:23.737Z,14.75
2017-11-04T13:18:32.274Z,14.7
2017-11-04T13:19:41.157Z,14.67
2017-11-04T13:20:50.368Z,14.7
2017-11-04T13:21:58.910Z,14.7
2017-11-04T13:23:07.458Z,14.75
2017-11-04T13:24:16.674Z,14.82
2017-11-04T13:25:25.554Z,14.85
2017-11-04T13:26:34.099Z,14.75
2017-11-04T13:27:42.641Z,14.8
2017-11-04T13:28:51.183Z,14.75
2017-11-04T13:30:00.401Z,14.89
2017-11-04T13:31:09.274Z,14.85
2017-11-04T13:32:18.152Z,14.82
2017-11-04T13:33:27.707Z,14.82
2017-11-04T13:34:36.250Z,14.75
2017-11-04T13:35:45.129Z,14.75
2017-11-04T13:36:54.022Z,14.71
2017-11-04T13:38:02.899Z,14.79
2017-11-04T13:39:11.439Z,14.77
2017-11-04T13:40:20.319Z,14.79
2017-11-04T13:41:29.198Z,14.67
2017-11-04T13:42:38.081Z,14.77
2017-11-04T13:43:46.977Z,14.79
2017-11-04T13:44:55.517Z,14.8
2017-11-04T13:46:04.742Z,14.89
2017-11-04T13:47:13.623Z,14.94
2017-11-04T13:48:22.508Z,14.9
2017-11-04T13:49:31.387Z,15.02
2017-11-04T13:50:40.621Z,15.05
2017-11-04T13:51:49.898Z,15.12
2017-11-04T13:52:59.112Z,15.1
2017-11-04T13:54:07.652Z,15.23
2017-11-04T13:55:16.193Z,15.23
2017-11-04T13:56:25.069Z,15.37
2017-11-04T13:57:33.618Z,15.35
2017-11-04T13:58:42.156Z,15.41
2017-11-04T13:59:50.701Z,15.44
2017-11-04T14:01:00.322Z,15.4
2017-11-04T14:02:08.882Z,15.49
2017-11-04T14:03:17.476Z,15.37
2017-11-04T14:04:26.021Z,15.49
2017-11-04T14:05:34.906Z,15.45
2017-11-04T14:06:43.781Z,15.49
2017-11-04T14:07:52.668Z,15.49
2017-11-04T14:09:01.564Z,15.43
2017-11-04T14:10:10.662Z,15.45
2017-11-04T14:11:21.124Z,15.47
2017-11-04T14:12:30.378Z,15.51
2017-11-04T14:13:38.949Z,15.53
2017-11-04T14:14:47.841Z,15.59
2017-11-04T14:15:56.727Z,15.59
2017-11-04T14:17:05.696Z,15.62
2017-11-04T14:18:14.747Z,15.67
2017-11-04T14:19:55.488Z,15.6
2017-11-04T14:21:04.491Z,15.53
2017-11-04T14:22:13.503Z,15.52
2017-11-04T14:23:23.122Z,15.58
2017-11-04T14:24:32.052Z,15.58
2017-11-04T14:25:40.599Z,15.52
2017-11-04T14:26:49.794Z,15.51
2017-11-04T14:27:58.339Z,15.58
2017-11-04T14:29:07.239Z,15.56
2017-11-04T14:30:16.132Z,15.49
2017-11-04T14:31:25.351Z,15.51
2017-11-04T14:32:33.898Z,15.49
2017-11-04T14:33:42.439Z,15.45
2017-11-04T14:34:50.989Z,15.45
2017-11-04T14:35:59.534Z,15.47
2017-11-04T14:37:08.417Z,15.4
2017-11-04T14:38:16.969Z,15.43
2017-11-04T14:39:25.515Z,15.45
2017-11-04T14:40:34.063Z,15.45
2017-11-04T14:41:42.605Z,15.45
2017-11-04T14:42:51.153Z,15.44
2017-11-04T14:43:59.698Z,15.35
2017-11-04T14:45:08.575Z,15.38
2017-11-04T14:46:17.792Z,15.37
2017-11-04T14:47:26.673Z,15.25
2017-11-04T14:48:35.561Z,15.27
2017-11-04T14:49:44.782Z,15.31
2017-11-04T14:50:53.330Z,15.27
2017-11-04T14:52:01.872Z,15.27
2017-11-04T14:53:10.417Z,15.15
2017-11-04T14:54:19.295Z,15.23
2017-11-04T14:55:28.857Z,15.16
2017-11-04T14:56:38.096Z,15.19
2017-11-04T14:57:46.979Z,15.08
2017-11-04T14:58:56.192Z,15.04
2017-11-04T15:00:05.072Z,15.04
2017-11-04T15:01:13.614Z,15.01
2017-11-04T15:02:22.156Z,15.02
2017-11-04T15:03:30.697Z,14.95
2017-11-04T15:04:39.576Z,14.95
2017-11-04T15:05:48.468Z,14.87
2017-11-04T15:06:57.069Z,14.79
2017-11-04T15:08:06.958Z,14.83